Time;durP1;ratioP1;P1;durP2;ratioP2;P2;SDS_P1;SDS_P2;PMS_P1;PMS_P2;Temp;Humidity;BMP_temperature;BMP_pressure;BME280_temperature;BME280_humidity;BME280_pressure;Samples;Min_cycle;Max_cycle;Signal;HPM_P1;HPM_P2
2023/09/30 00:00:38;;;;;;;7.07;3.47;;;;;;;16.97;44.82;102097.75;5032339;28;20925;-82
2023/09/30 00:03:06;;;;;;;7.30;3.65;;;;;;;16.92;45.18;102098.16;5032509;28;20049;-81
2023/09/30 00:05:34;;;;;;;7.63;3.30;;;;;;;16.88;45.37;102096.72;5032452;28;20042;-82
2023/09/30 00:08:02;;;;;;;6.05;3.38;;;;;;;16.85;45.49;102098.88;5047881;28;20056;-81
2023/09/30 00:10:31;;;;;;;7.35;3.35;;;;;;;16.84;45.18;102119.25;5033993;28;20053;-82
2023/09/30 00:12:59;;;;;;;5.93;3.35;;;;;;;16.82;45.53;102126.84;5038504;28;20081;-81
2023/09/30 00:15:27;;;;;;;7.18;3.03;;;;;;;16.79;45.09;102116.06;5035252;28;20393;-81
2023/09/30 00:17:56;;;;;;;7.07;3.30;;;;;;;16.81;45.36;102123.19;5041805;28;20046;-82
2023/09/30 00:20:24;;;;;;;5.65;2.97;;;;;;;16.79;45.50;102116.06;5046557;28;20079;-82
2023/09/30 00:22:52;;;;;;;7.95;3.35;;;;;;;16.78;44.89;102119.84;5062126;28;20063;-82
2023/09/30 00:25:20;;;;;;;5.80;2.90;;;;;;;16.77;45.27;102120.84;5040788;28;20045;-82
2023/09/30 00:27:49;;;;;;;6.25;2.67;;;;;;;16.75;45.36;102120.09;5026322;28;20678;-82
2023/09/30 00:30:17;;;;;;;6.68;3.55;;;;;;;16.73;44.89;102122.16;5028053;28;20524;-82
2023/09/30 00:32:45;;;;;;;6.65;3.15;;;;;;;16.71;44.80;102124.19;5024373;28;20060;-81
2023/09/30 00:35:14;;;;;;;5.60;2.92;;;;;;;16.70;44.71;102112.25;5040180;28;20152;-82
2023/09/30 00:37:42;;;;;;;7.70;2.97;;;;;;;16.66;45.10;102105.25;5031571;28;20045;-83
2023/09/30 00:40:13;;;;;;;6.80;3.03;;;;;;;16.65;44.88;102111.84;5027578;28;20230;-80
2023/09/30 00:42:42;;;;;;;6.43;3.22;;;;;;;16.61;45.03;102111.22;5029522;28;20062;-80
2023/09/30 00:45:10;;;;;;;6.72;2.75;;;;;;;16.59;45.17;102118.78;5031704;28;20064;-81
2023/09/30 00:47:39;;;;;;;5.15;2.90;;;;;;;16.58;45.19;102124.44;5027123;28;20061;-82
2023/09/30 00:50:10;;;;;;;4.70;2.35;;;;;;;16.58;45.53;102127.22;5031027;28;20044;-81
2023/09/30 00:52:41;;;;;;;8.02;3.00;;;;;;;16.56;45.50;102123.75;5032533;28;20497;-82
2023/09/30 00:55:10;;;;;;;6.03;2.70;;;;;;;16.57;45.06;102128.25;5046734;28;20136;-83
2023/09/30 00:57:39;;;;;;;6.70;2.42;;;;;;;16.57;45.52;102125.50;5027974;28;20110;-82
2023/09/30 01:00:11;;;;;;;6.00;2.75;;;;;;;16.57;45.47;102129.13;5026502;28;21293;-80
2023/09/30 01:02:41;;;;;;;5.07;2.50;;;;;;;16.53;45.41;102130.41;5027477;28;20063;-82
2023/09/30 01:05:10;;;;;;;5.10;2.92;;;;;;;16.55;45.63;102150.50;5031143;28;20049;-82
2023/09/30 01:07:38;;;;;;;6.47;3.15;;;;;;;16.54;45.27;102151.53;5029768;28;20049;-82
2023/09/30 01:10:08;;;;;;;5.97;2.53;;;;;;;16.55;45.37;102144.97;5032406;28;20129;-82
2023/09/30 01:12:37;;;;;;;6.50;2.95;;;;;;;16.53;45.75;102141.47;5043659;28;20053;-82
2023/09/30 01:15:06;;;;;;;7.28;2.97;;;;;;;16.53;45.56;102132.31;5044913;28;20135;-82
2023/09/30 01:17:36;;;;;;;5.90;2.80;;;;;;;16.52;45.52;102123.16;5025531;28;20444;-82
2023/09/30 01:20:06;;;;;;;6.63;3.20;;;;;;;16.51;45.58;102113.09;5028234;28;20045;-82
2023/09/30 01:22:35;;;;;;;6.15;3.10;;;;;;;16.53;45.87;102116.59;5026212;28;20141;-82
2023/09/30 01:25:04;;;;;;;5.50;2.88;;;;;;;16.51;45.71;102117.75;5031047;28;20059;-82
2023/09/30 01:27:34;;;;;;;7.00;2.70;;;;;;;16.49;45.97;102137.28;5027184;28;20049;-80
2023/09/30 01:30:02;;;;;;;7.50;3.10;;;;;;;16.50;45.53;102146.41;5043065;28;20051;-82
2023/09/30 01:32:31;;;;;;;7.07;3.15;;;;;;;16.50;45.91;102146.41;5028473;28;20717;-79
2023/09/30 01:34:59;;;;;;;6.43;2.90;;;;;;;16.50;45.41;102138.13;5041656;28;20053;-82
2023/09/30 01:37:28;;;;;;;5.43;2.85;;;;;;;16.51;45.60;102134.34;5031413;28;20056;-80
2023/09/30 01:39:58;;;;;;;7.07;3.00;;;;;;;16.51;45.57;102134.34;5029218;28;20067;-80
2023/09/30 01:42:26;;;;;;;6.35;2.80;;;;;;;16.47;45.36;102138.41;5032965;28;20049;-81
2023/09/30 01:44:54;;;;;;;6.40;2.78;;;;;;;16.48;45.31;102140.16;5028018;28;20053;-80
2023/09/30 01:47:22;;;;;;;5.00;2.85;;;;;;;16.45;45.70;102133.03;5028118;28;20491;-81
2023/09/30 01:49:50;;;;;;;6.10;3.03;;;;;;;16.46;45.56;102136.66;5029723;28;20136;-80
2023/09/30 01:52:18;;;;;;;5.80;2.97;;;;;;;16.45;46.07;102140.44;5026437;28;20049;-80
2023/09/30 01:54:46;;;;;;;5.82;2.90;;;;;;;16.43;45.97;102146.09;5025011;28;20065;-81
2023/09/30 01:57:16;;;;;;;5.80;2.80;;;;;;;16.46;45.68;102154.13;5028148;28;20582;-81
2023/09/30 01:59:44;;;;;;;6.10;2.92;;;;;;;16.44;45.65;102160.78;5038596;28;20056;-80
2023/09/30 02:02:12;;;;;;;5.78;2.83;;;;;;;16.44;45.93;102164.44;5032755;28;20183;-80
2023/09/30 02:04:40;;;;;;;5.25;2.90;;;;;;;16.44;45.81;102158.91;5034490;28;20048;-80
2023/09/30 02:07:08;;;;;;;5.63;2.60;;;;;;;16.45;45.85;102163.41;5062438;28;20050;-80
2023/09/30 02:09:37;;;;;;;6.35;3.25;;;;;;;16.44;45.62;102160.78;5060314;28;20056;-79
2023/09/30 02:12:07;;;;;;;6.53;2.78;;;;;;;16.44;45.78;102160.78;5042436;28;20513;-81
2023/09/30 02:14:39;;;;;;;6.45;3.45;;;;;;;16.45;45.62;102179.13;5047212;28;20059;-80
2023/09/30 02:17:07;;;;;;;6.00;2.83;;;;;;;16.41;45.44;102175.78;5030049;28;20630;-80
2023/09/30 02:19:35;;;;;;;5.90;2.95;;;;;;;16.38;45.58;102165.00;5031068;28;20146;-81
2023/09/30 02:22:04;;;;;;;7.65;3.30;;;;;;;16.36;45.49;102163.38;5030607;28;20424;-81
2023/09/30 02:24:32;;;;;;;5.03;2.97;;;;;;;16.35;45.30;102167.16;5038459;28;20056;-81
2023/09/30 02:27:01;;;;;;;6.25;3.22;;;;;;;16.31;45.64;102162.94;5031412;28;20416;-80
2023/09/30 02:29:29;;;;;;;7.50;3.40;;;;;;;16.30;45.44;102156.53;5035812;28;20773;-81
2023/09/30 02:31:58;;;;;;;6.53;3.50;;;;;;;16.29;45.59;102148.38;5033798;28;20057;-80
2023/09/30 02:34:27;;;;;;;6.38;2.90;;;;;;;16.23;45.32;102149.84;5032271;28;20053;-81
2023/09/30 02:36:55;;;;;;;5.50;2.67;;;;;;;16.22;45.35;102151.72;5030999;28;20148;-80
2023/09/30 02:39:23;;;;;;;4.88;2.63;;;;;;;16.21;45.24;102143.56;5035259;28;20056;-80
2023/09/30 02:41:53;;;;;;;5.47;3.03;;;;;;;16.20;45.38;102142.69;5051114;28;20056;-80
2023/09/30 02:44:21;;;;;;;6.55;3.33;;;;;;;16.20;45.88;102147.34;5031803;28;20117;-80
2023/09/30 02:46:49;;;;;;;4.93;2.67;;;;;;;16.19;45.43;102146.47;5032917;28;20053;-81
2023/09/30 02:49:18;;;;;;;6.13;3.00;;;;;;;16.21;45.52;102155.50;5036603;28;20240;-81
2023/09/30 02:51:46;;;;;;;6.60;3.40;;;;;;;16.18;45.51;102161.28;5032366;28;20053;-81
2023/09/30 02:54:16;;;;;;;5.72;3.22;;;;;;;16.18;45.57;102161.28;5033265;28;20655;-81
2023/09/30 02:56:46;;;;;;;6.35;2.95;;;;;;;16.14;45.16;102157.03;5038318;28;20484;-81
2023/09/30 02:59:14;;;;;;;6.22;3.00;;;;;;;16.12;45.31;102160.94;5032188;28;20053;-81
2023/09/30 03:01:42;;;;;;;6.10;3.13;;;;;;;16.08;45.43;102168.66;5048404;28;20604;-81
2023/09/30 03:04:12;;;;;;;5.63;3.30;;;;;;;16.06;45.33;102176.19;5034312;28;20061;-80
2023/09/30 03:06:42;;;;;;;5.95;2.92;;;;;;;16.07;45.62;102179.84;5033285;28;20049;-80
2023/09/30 03:09:12;;;;;;;4.95;2.70;;;;;;;16.02;45.63;102171.06;5031880;28;20148;-81
2023/09/30 03:11:42;;;;;;;5.82;2.95;;;;;;;16.01;45.64;102166.56;5047942;28;20050;-80
2023/09/30 03:14:10;;;;;;;7.35;3.05;;;;;;;15.99;45.37;102163.97;5034132;28;20126;-81
2023/09/30 03:16:41;;;;;;;5.10;2.85;;;;;;;15.98;45.44;102164.97;5030556;28;20081;-81
2023/09/30 03:19:11;;;;;;;7.30;3.17;;;;;;;15.95;45.18;102165.22;5034170;28;20056;-81
2023/09/30 03:21:39;;;;;;;7.22;3.00;;;;;;;15.94;45.12;102166.25;5031099;28;20558;-81
2023/09/30 03:24:09;;;;;;;5.72;3.10;;;;;;;15.93;45.39;102169.13;5033407;28;20760;-81
2023/09/30 03:26:41;;;;;;;6.00;3.00;;;;;;;15.89;45.32;102174.06;5029943;28;20834;-81
2023/09/30 03:29:09;;;;;;;5.83;3.10;;;;;;;15.84;45.49;102168.06;5031492;28;20790;-80
2023/09/30 03:31:37;;;;;;;6.60;2.75;;;;;;;15.83;45.39;102166.34;5034670;28;20814;-81
2023/09/30 03:34:06;;;;;;;5.57;3.20;;;;;;;15.80;45.35;102169.38;5031810;28;20044;-82
2023/09/30 03:36:35;;;;;;;6.72;3.22;;;;;;;15.78;45.18;102163.97;5032196;28;20468;-82
2023/09/30 03:39:07;;;;;;;7.38;3.63;;;;;;;15.76;45.33;102152.19;5032438;28;20045;-81
2023/09/30 03:41:37;;;;;;;6.05;3.10;;;;;;;15.74;45.25;102157.00;5030554;28;20045;-82
2023/09/30 03:44:06;;;;;;;5.95;2.92;;;;;;;15.68;44.84;102152.00;5034658;28;20053;-82
2023/09/30 03:46:34;;;;;;;6.80;3.30;;;;;;;15.64;45.44;102156.06;5031391;28;20056;-81
2023/09/30 03:49:02;;;;;;;5.88;2.97;;;;;;;15.63;45.08;102156.19;5035576;28;20084;-81
2023/09/30 03:51:30;;;;;;;6.07;3.35;;;;;;;15.60;45.33;102154.56;5040439;28;20049;-81
2023/09/30 03:54:00;;;;;;;6.10;3.30;;;;;;;15.57;44.98;102148.47;5047797;28;20037;-80
2023/09/30 03:56:29;;;;;;;5.35;3.00;;;;;;;15.54;45.42;102151.47;5049803;28;20037;-80
2023/09/30 03:58:58;;;;;;;7.05;3.40;;;;;;;15.52;45.52;102144.22;5065071;28;20061;-81
2023/09/30 04:01:27;;;;;;;6.22;3.35;;;;;;;15.48;45.18;102142.75;5036891;28;20140;-81
2023/09/30 04:03:56;;;;;;;6.22;3.22;;;;;;;15.47;45.51;102145.63;5040262;28;20059;-81
2023/09/30 04:06:24;;;;;;;6.18;3.00;;;;;;;15.43;45.36;102155.19;5039847;28;20163;-80
2023/09/30 04:08:52;;;;;;;6.93;3.03;;;;;;;15.40;45.26;102161.88;5039711;28;20055;-80
2023/09/30 04:11:20;;;;;;;5.70;2.72;;;;;;;15.40;45.64;102160.97;5036005;28;20088;-80
2023/09/30 04:13:49;;;;;;;5.85;3.22;;;;;;;15.37;45.50;102155.72;5038962;28;20053;-81
2023/09/30 04:16:19;;;;;;;7.53;3.35;;;;;;;15.38;45.62;102141.81;5041182;28;20846;-80
2023/09/30 04:18:49;;;;;;;6.30;3.47;;;;;;;15.36;45.37;102140.19;5040413;28;20080;-81
2023/09/30 04:21:17;;;;;;;6.38;3.05;;;;;;;15.35;45.67;102142.06;5050006;28;20073;-80
2023/09/30 04:23:46;;;;;;;6.85;3.75;;;;;;;15.34;45.65;102150.50;5035431;28;20053;-80
2023/09/30 04:26:14;;;;;;;7.63;3.22;;;;;;;15.32;45.47;102146.97;5046599;28;20065;-81
2023/09/30 04:28:43;;;;;;;7.78;3.20;;;;;;;15.30;45.55;102146.22;5030512;28;20054;-81
2023/09/30 04:31:13;;;;;;;6.72;3.25;;;;;;;15.28;45.57;102142.69;5029754;28;20132;-81
2023/09/30 04:33:43;;;;;;;7.78;3.22;;;;;;;15.28;45.35;102140.81;5032538;28;20894;-80
2023/09/30 04:36:11;;;;;;;5.90;3.03;;;;;;;15.24;45.21;102144.88;5039437;28;20144;-81
2023/09/30 04:38:39;;;;;;;6.90;3.25;;;;;;;15.23;45.40;102145.88;5032432;28;20085;-80
2023/09/30 04:41:08;;;;;;;6.03;2.90;;;;;;;15.21;45.50;102152.53;5031497;28;20049;-82
2023/09/30 04:43:37;;;;;;;5.85;3.08;;;;;;;15.21;45.79;102169.06;5031983;28;20599;-81
2023/09/30 04:46:07;;;;;;;5.18;3.33;;;;;;;15.19;45.92;102163.69;5030681;28;20060;-82
2023/09/30 04:48:35;;;;;;;5.43;2.75;;;;;;;15.18;45.79;102166.59;5034841;28;20079;-82
2023/09/30 04:51:08;;;;;;;5.78;2.97;;;;;;;15.22;45.74;102170.81;5031681;28;20056;-81
2023/09/30 04:53:36;;;;;;;7.80;3.50;;;;;;;15.19;45.90;102182.09;5032768;28;20394;-83
2023/09/30 04:56:04;;;;;;;6.60;3.08;;;;;;;15.19;45.58;102185.75;5031082;28;20045;-82
2023/09/30 04:58:32;;;;;;;6.10;3.20;;;;;;;15.18;45.74;102186.75;5032437;28;20065;-82
2023/09/30 05:01:00;;;;;;;6.00;2.88;;;;;;;15.19;45.70;102173.84;5032121;28;20045;-81
2023/09/30 05:03:28;;;;;;;5.38;2.83;;;;;;;15.19;45.70;102180.22;5051116;28;20107;-80
2023/09/30 05:05:58;;;;;;;5.25;2.80;;;;;;;15.19;45.62;102184.88;5050186;28;20131;-81
2023/09/30 05:08:28;;;;;;;6.53;3.03;;;;;;;15.19;45.70;102180.22;5052417;28;20113;-81
2023/09/30 05:10:58;;;;;;;5.95;2.90;;;;;;;15.18;45.41;102186.75;5033197;28;20481;-81
2023/09/30 05:13:26;;;;;;;7.65;3.10;;;;;;;15.16;45.37;102183.28;5041371;28;20067;-82
2023/09/30 05:15:54;;;;;;;5.65;3.17;;;;;;;15.16;45.65;102190.66;5045357;28;20144;-81
2023/09/30 05:18:23;;;;;;;8.15;3.42;;;;;;;15.14;45.58;102194.44;5037995;28;20064;-82
2023/09/30 05:20:52;;;;;;;7.97;3.40;;;;;;;15.12;45.47;102190.91;5038388;28;20144;-81
2023/09/30 05:23:20;;;;;;;6.30;3.30;;;;;;;15.12;45.66;102188.16;5049127;28;20041;-81
2023/09/30 05:25:49;;;;;;;5.43;3.25;;;;;;;15.12;45.17;102195.56;5057278;28;20045;-81
2023/09/30 05:28:17;;;;;;;5.72;3.17;;;;;;;15.09;45.15;102193.94;5042933;28;20061;-80
2023/09/30 05:30:45;;;;;;;6.45;3.00;;;;;;;15.09;45.14;102204.13;5044456;28;20111;-82
2023/09/30 05:33:14;;;;;;;7.82;3.78;;;;;;;15.05;45.11;102206.25;5047322;28;20910;-82
2023/09/30 05:35:42;;;;;;;7.18;3.45;;;;;;;15.05;45.69;102209.00;5048136;28;20087;-83
2023/09/30 05:38:12;;;;;;;5.88;3.10;;;;;;;15.05;45.49;102202.59;5048836;28;20046;-82
2023/09/30 05:40:41;;;;;;;7.78;3.58;;;;;;;15.03;45.26;102204.63;5049804;28;20049;-82
2023/09/30 05:43:13;;;;;;;6.82;3.17;;;;;;;15.03;45.36;102208.25;5051974;28;20037;-82
2023/09/30 05:45:48;;;;;;;6.90;3.63;;;;;;;14.98;45.67;102207.78;5046653;28;20140;-81
2023/09/30 05:48:17;;;;;;;6.70;3.30;;;;;;;14.97;45.53;102217.06;5037289;28;20061;-82
2023/09/30 05:50:45;;;;;;;8.00;3.70;;;;;;;14.95;45.29;102215.41;5039268;28;20042;-80
2023/09/30 05:53:14;;;;;;;8.32;4.03;;;;;;;14.91;45.39;102217.59;5037671;28;20056;-83
2023/09/30 05:55:43;;;;;;;8.05;3.67;;;;;;;14.87;45.52;102213.31;5032927;28;20042;-83
2023/09/30 05:58:14;;;;;;;6.28;3.42;;;;;;;14.89;45.67;102219.59;5032411;28;20052;-82
2023/09/30 06:00:42;;;;;;;6.82;3.50;;;;;;;14.85;45.47;102219.97;5033851;28;20049;-82
2023/09/30 06:03:11;;;;;;;8.77;3.72;;;;;;;14.82;45.39;102226.63;5040464;28;20500;-82
2023/09/30 06:05:41;;;;;;;8.63;3.83;;;;;;;14.81;46.03;102219.34;5042953;28;20140;-82
2023/09/30 06:08:13;;;;;;;8.23;4.07;;;;;;;14.82;46.02;102220.22;5047069;28;20057;-82
2023/09/30 06:10:43;;;;;;;;;;;;;;;14.52;46.32;102223.69;5061065;28;20118;-82
2023/09/30 06:13:15;;;;;;;8.27;3.65;;;;;;;14.76;46.29;102213.38;5039949;28;19929;-83
2023/09/30 06:15:46;;;;;;;9.00;4.20;;;;;;;14.77;46.19;102221.47;5038145;28;20057;-82
2023/09/30 06:18:15;;;;;;;6.82;3.70;;;;;;;14.81;45.89;102223.97;5040455;28;20057;-82
2023/09/30 06:20:43;;;;;;;8.18;3.67;;;;;;;14.81;46.03;102232.25;5043082;28;20540;-82
2023/09/30 06:23:11;;;;;;;7.50;4.30;;;;;;;14.82;45.81;102232.13;5041018;28;20517;-83
2023/09/30 06:25:39;;;;;;;8.95;4.05;;;;;;;14.82;45.99;102228.50;5049906;28;20650;-83
2023/09/30 06:28:08;;;;;;;7.20;4.22;;;;;;;14.81;46.30;102224.88;5052754;28;20049;-83
2023/09/30 06:30:38;;;;;;;8.50;4.32;;;;;;;14.84;46.15;102234.75;5034143;28;20725;-84
2023/09/30 06:33:06;;;;;;;7.05;4.10;;;;;;;14.81;46.61;102227.63;5036282;28;20084;-82
2023/09/30 06:35:37;;;;;;;8.48;4.65;;;;;;;14.85;47.05;102229.09;5031577;28;20059;-83
2023/09/30 06:38:06;;;;;;;7.93;4.32;;;;;;;14.89;47.55;102235.25;5033663;28;20052;-82
2023/09/30 06:40:35;;;;;;;8.10;4.43;;;;;;;14.95;48.06;102230.09;5037033;28;20041;-82
2023/09/30 06:43:07;;;;;;;7.43;4.18;;;;;;;15.02;47.77;102236.81;5048590;28;20050;-82
2023/09/30 06:45:41;;;;;;;8.18;4.22;;;;;;;15.12;48.41;102246.06;5034536;28;20049;-82
2023/09/30 06:48:12;;;;;;;6.93;4.18;;;;;;;15.26;48.08;102255.06;5033943;28;20180;-82
2023/09/30 06:50:44;;;;;;;8.15;4.72;;;;;;;15.36;48.26;102247.75;5039194;28;20060;-82
2023/09/30 06:53:13;;;;;;;8.20;4.50;;;;;;;15.47;48.09;102245.84;5054879;28;20046;-83
2023/09/30 06:55:41;;;;;;;8.00;4.22;;;;;;;15.60;48.09;102247.53;5035143;28;20049;-82
2023/09/30 06:58:10;;;;;;;8.00;4.30;;;;;;;15.73;48.36;102253.75;5038528;28;20055;-82
2023/09/30 07:00:39;;;;;;;8.65;5.18;;;;;;;15.85;48.37;102255.41;5034858;28;20133;-81
2023/09/30 07:03:09;;;;;;;7.82;4.20;;;;;;;16.00;48.35;102244.91;5038938;28;20503;-82
2023/09/30 07:05:40;;;;;;;8.63;4.50;;;;;;;16.16;48.31;102237.88;5039762;28;20064;-82
2023/09/30 07:08:08;;;;;;;7.82;4.28;;;;;;;16.27;47.94;102226.75;5057238;28;20049;-82
2023/09/30 07:10:36;;;;;;;7.38;4.47;;;;;;;16.42;48.20;102241.06;5039028;28;20055;-82
2023/09/30 07:13:06;;;;;;;6.82;4.03;;;;;;;16.56;47.57;102246.22;5034908;28;20072;-82
2023/09/30 07:15:34;;;;;;;7.75;4.35;;;;;;;16.71;47.31;102249.47;5035047;28;20100;-83
2023/09/30 07:18:02;;;;;;;7.30;4.22;;;;;;;16.86;47.16;102252.72;5037699;28;20065;-83
2023/09/30 07:20:32;;;;;;;7.25;4.13;;;;;;;16.99;47.21;102259.75;5032321;28;20455;-82
2023/09/30 07:23:03;;;;;;;7.25;4.68;;;;;;;17.16;47.32;102260.06;5057472;28;20132;-82
2023/09/30 07:25:46;;;;;;;8.30;3.70;;;;;;;17.26;47.01;102259.06;5041185;28;20422;-82
2023/09/30 07:28:14;;;;;;;8.02;4.43;;;;;;;17.39;47.03;102269.88;5048100;28;20052;-81
2023/09/30 07:30:42;;;;;;;7.72;4.72;;;;;;;17.49;46.48;102273.47;5049534;28;20083;-83
2023/09/30 07:33:10;;;;;;;9.48;4.28;;;;;;;17.57;46.70;102273.63;5032087;28;20053;-82
2023/09/30 07:35:39;;;;;;;6.75;4.03;;;;;;;17.68;46.52;102292.00;5036034;28;20044;-81
2023/09/30 07:38:09;;;;;;;8.23;4.68;;;;;;;17.79;46.04;102294.66;5036669;28;20292;-82
2023/09/30 07:40:37;;;;;;;7.85;4.57;;;;;;;17.85;46.29;102298.72;5043256;28;20072;-81
2023/09/30 07:43:05;;;;;;;8.88;4.55;;;;;;;17.91;45.97;102303.66;5040273;28;20077;-82
2023/09/30 07:45:33;;;;;;;6.97;4.45;;;;;;;17.95;45.33;102302.38;5039780;28;20156;-82
2023/09/30 07:48:03;;;;;;;8.75;4.90;;;;;;;17.95;45.38;102305.13;5037376;28;20125;-81
2023/09/30 07:50:31;;;;;;;6.75;4.45;;;;;;;17.96;45.00;102305.00;5034570;28;20088;-81
2023/09/30 07:53:00;;;;;;;8.52;4.68;;;;;;;17.95;44.62;102305.13;5051330;28;20049;-82
2023/09/30 07:55:30;;;;;;;7.47;4.65;;;;;;;17.94;44.46;102307.03;5032974;28;20060;-82
2023/09/30 07:57:59;;;;;;;9.43;4.45;;;;;;;17.88;44.43;102310.41;5037470;28;20061;-82
2023/09/30 08:00:27;;;;;;;8.98;4.63;;;;;;;17.85;44.81;102309.81;5034378;28;20053;-81
2023/09/30 08:03:00;;;;;;;8.68;4.65;;;;;;;17.82;44.44;102313.72;5033365;28;20045;-82
2023/09/30 08:05:28;;;;;;;9.60;5.00;;;;;;;17.73;44.30;102317.38;5035865;28;20068;-82
2023/09/30 08:07:56;;;;;;;7.38;4.78;;;;;;;17.68;44.62;102319.69;5055164;28;20049;-82
2023/09/30 08:10:24;;;;;;;7.45;4.68;;;;;;;17.63;44.55;102325.66;5038088;28;20194;-82
2023/09/30 08:12:57;;;;;;;7.70;4.70;;;;;;;17.61;44.57;102324.06;5037333;28;20386;-82
2023/09/30 08:15:25;;;;;;;7.97;4.55;;;;;;;17.52;44.56;102325.81;5038107;28;20046;-81
2023/09/30 08:17:54;;;;;;;8.15;4.90;;;;;;;17.51;44.69;102332.34;5036229;28;20045;-81
2023/09/30 08:20:22;;;;;;;7.97;5.05;;;;;;;17.47;44.87;102325.38;5041182;28;20060;-81
2023/09/30 08:22:49;;;;;;;8.63;5.47;;;;;;;17.45;44.82;102329.28;5053483;28;20219;-81
2023/09/30 08:25:17;;;;;;;9.15;5.13;;;;;;;17.43;45.00;102336.84;5061977;28;20068;-81
2023/09/30 08:27:49;;;;;;;9.35;5.22;;;;;;;17.40;45.25;102336.13;5044432;28;20163;-81
2023/09/30 08:30:18;;;;;;;11.30;5.90;;;;;;;17.40;45.19;102330.59;5062709;28;20077;-81
2023/09/30 08:32:47;;;;;;;9.27;5.22;;;;;;;17.41;45.63;102334.22;5062227;28;20061;-82
2023/09/30 08:35:15;;;;;;;9.43;5.63;;;;;;;17.42;45.70;102330.44;5062879;28;20144;-81
2023/09/30 08:37:43;;;;;;;9.98;5.70;;;;;;;17.43;46.10;102334.97;5051127;28;20041;-83
2023/09/30 08:40:12;;;;;;;10.57;6.15;;;;;;;17.46;45.83;102334.69;5060255;28;20052;-78
2023/09/30 08:42:41;;;;;;;9.23;5.65;;;;;;;17.48;45.61;102331.78;5059220;28;20061;-79
2023/09/30 08:45:14;;;;;;;8.98;6.20;;;;;;;17.52;45.84;102334.09;5031687;28;20846;-79
2023/09/30 08:47:43;;;;;;;9.93;6.22;;;;;;;17.54;45.61;102328.44;5035090;28;20069;-78
2023/09/30 08:50:13;;;;;;;8.40;5.35;;;;;;;17.54;45.75;102336.72;5034570;28;20700;-79
2023/09/30 08:52:43;;;;;;;10.18;6.72;;;;;;;17.57;45.64;102336.44;5044252;28;20051;-78
2023/09/30 08:55:12;;;;;;;8.38;5.57;;;;;;;17.58;45.99;102330.75;5032875;28;20056;-78
2023/09/30 08:57:42;;;;;;;11.20;6.45;;;;;;;17.62;45.94;102320.28;5033537;28;20065;-80
2023/09/30 09:00:12;;;;;;;9.90;6.15;;;;;;;17.63;45.68;102320.13;5035915;28;20053;-80
2023/09/30 09:02:42;;;;;;;11.18;6.28;;;;;;;17.63;46.00;102308.19;5044351;28;20065;-80
2023/09/30 09:05:12;;;;;;;8.98;5.65;;;;;;;17.67;45.59;102302.19;5049665;28;20125;-80
2023/09/30 09:07:42;;;;;;;9.27;6.65;;;;;;;17.67;46.25;102291.13;5044772;28;20056;-80
2023/09/30 09:10:13;;;;;;;10.43;6.28;;;;;;;17.71;45.78;102295.38;5056312;28;20052;-79
2023/09/30 09:12:41;;;;;;;10.90;5.95;;;;;;;17.73;46.21;102298.00;5038948;28;20065;-80
2023/09/30 09:15:24;;;;;;;8.98;5.00;;;;;;;17.80;45.95;102301.06;5038007;28;20132;-80
2023/09/30 09:17:53;;;;;;;11.15;6.22;;;;;;;17.82;46.36;102305.41;5031174;28;20060;-80
2023/09/30 09:20:25;;;;;;;10.93;6.30;;;;;;;17.88;45.86;102306.75;5034061;28;20057;-80
2023/09/30 09:22:55;;;;;;;11.38;6.25;;;;;;;17.88;45.73;102296.53;5048798;28;20053;-79
2023/09/30 09:25:24;;;;;;;11.07;7.15;;;;;;;17.93;45.76;102298.84;5032538;28;20513;-80
2023/09/30 09:27:53;;;;;;;12.63;6.72;;;;;;;17.96;45.54;102293.91;5029269;28;20053;-81
2023/09/30 09:30:24;;;;;;;9.65;6.03;;;;;;;17.98;45.24;102296.50;5029826;28;20049;-81
2023/09/30 09:33:00;;;;;;;9.52;5.55;;;;;;;18.00;45.32;102286.16;5024944;28;20126;-80
2023/09/30 09:35:30;;;;;;;8.70;4.95;;;;;;;18.00;45.80;102287.03;5031803;28;20636;-79
2023/09/30 09:38:00;;;;;;;8.13;4.65;;;;;;;18.04;45.89;102287.63;5048145;28;20044;-79
2023/09/30 09:40:33;;;;;;;7.15;4.88;;;;;;;18.07;45.73;102288.19;5038501;28;20516;-79
2023/09/30 09:43:04;;;;;;;8.90;5.25;;;;;;;18.14;46.02;102291.25;5054630;28;20106;-80
2023/09/30 09:45:35;;;;;;;7.68;4.00;;;;;;;18.21;45.78;102291.53;5055962;28;20063;-81
2023/09/30 09:48:05;;;;;;;7.63;4.47;;;;;;;18.28;45.67;102289.91;5034859;28;20108;-81
2023/09/30 09:50:37;;;;;;;7.75;4.18;;;;;;;18.38;45.79;102296.28;5039392;28;20653;-82
2023/09/30 09:53:06;;;;;;;7.00;4.30;;;;;;;18.40;45.32;102300.63;5038754;28;20064;-81
2023/09/30 09:55:39;;;;;;;5.88;4.00;;;;;;;18.48;45.06;102303.56;5036403;28;20463;-80
2023/09/30 09:58:10;;;;;;;8.30;3.75;;;;;;;18.60;44.73;102306.16;5039812;28;20449;-80
2023/09/30 10:00:39;;;;;;;6.85;3.80;;;;;;;18.66;44.89;102305.53;5050876;28;20148;-81
2023/09/30 10:03:07;;;;;;;6.00;3.80;;;;;;;18.70;44.55;102316.19;5032297;28;20618;-81
2023/09/30 10:05:40;;;;;;;5.20;3.47;;;;;;;18.79;43.85;102322.72;5051475;28;20791;-80
2023/09/30 10:08:12;;;;;;;8.60;3.22;;;;;;;18.81;43.70;102323.41;5031729;28;20079;-80
2023/09/30 10:10:40;;;;;;;6.25;3.65;;;;;;;18.83;43.79;102316.69;5035586;28;20069;-79
2023/09/30 10:13:08;;;;;;;5.75;3.35;;;;;;;18.87;43.56;102336.69;5036966;28;20048;-80
2023/09/30 10:15:43;;;;;;;5.80;3.65;;;;;;;18.92;42.97;102334.31;5032858;28;20048;-81
2023/09/30 10:18:11;;;;;;;7.43;3.28;;;;;;;18.93;43.22;102338.84;5035359;28;20049;-81
2023/09/30 10:20:47;;;;;;;5.95;3.05;;;;;;;18.96;43.08;102346.00;5034770;28;20060;-81
2023/09/30 10:23:32;;;;;;;5.97;3.28;;;;;;;19.00;42.55;102333.56;5034753;28;20450;-80
2023/09/30 10:26:17;;;;;;;5.22;2.60;;;;;;;19.00;42.64;102341.88;5051720;28;20056;-80
2023/09/30 10:28:49;;;;;;;5.57;2.60;;;;;;;19.03;43.32;102330.47;5039603;28;20045;-82
2023/09/30 10:31:19;;;;;;;6.43;3.40;;;;;;;19.09;43.09;102318.75;5035818;28;20061;-80
2023/09/30 10:34:21;;;;;;;5.97;2.60;;;;;;;19.09;42.56;102322.41;5047084;28;20474;-81
2023/09/30 10:36:53;;;;;;;4.85;2.80;;;;;;;19.19;43.21;102316.81;5035565;28;20459;-80
2023/09/30 10:39:55;;;;;;;6.55;3.28;;;;;;;19.24;41.96;102323.66;5038594;28;20141;-80
2023/09/30 10:42:51;;;;;;;5.68;2.58;;;;;;;19.30;41.85;102324.94;5032251;28;20505;-80
2023/09/30 10:45:45;;;;;;;6.15;3.08;;;;;;;19.37;41.14;102339.09;5044291;28;20053;-80
2023/09/30 10:48:38;;;;;;;4.70;2.47;;;;;;;19.41;41.12;102341.38;5035216;28;20084;-79
2023/09/30 10:51:14;;;;;;;4.65;2.25;;;;;;;19.49;41.04;102347.00;5034367;28;20114;-81
2023/09/30 10:53:48;;;;;;;4.25;2.50;;;;;;;19.53;41.30;102342.91;5037214;28;20903;-79
2023/09/30 10:56:16;;;;;;;4.68;2.47;;;;;;;19.56;41.55;102331.47;5045696;28;20057;-79
2023/09/30 10:58:46;;;;;;;4.22;2.58;;;;;;;19.61;41.61;102334.66;5047538;28;20142;-77
2023/09/30 11:01:16;;;;;;;4.25;2.20;;;;;;;19.65;41.51;102324.97;5057974;28;20053;-77
2023/09/30 11:03:45;;;;;;;4.50;2.13;;;;;;;19.72;41.21;102310.44;5035718;28;20057;-79
2023/09/30 11:06:17;;;;;;;4.65;2.40;;;;;;;19.75;40.56;102312.91;5030612;28;20048;-79
2023/09/30 11:08:53;;;;;;;4.47;2.20;;;;;;;19.78;39.62;102310.69;5043411;28;20061;-78
2023/09/30 11:11:34;;;;;;;5.72;2.40;;;;;;;19.85;39.54;102308.13;5065585;28;20053;-78
2023/09/30 11:14:02;;;;;;;4.30;2.28;;;;;;;19.87;40.77;102297.75;5058783;28;20056;-79
2023/09/30 11:16:30;;;;;;;4.80;2.20;;;;;;;19.91;40.45;102297.28;5041049;28;20116;-78
2023/09/30 11:18:58;;;;;;;4.93;2.22;;;;;;;19.96;40.02;102307.91;5043896;28;20077;-78
2023/09/30 11:21:27;;;;;;;3.88;1.90;;;;;;;20.01;40.36;102299.97;5040752;28;20056;-79
2023/09/30 11:23:58;;;;;;;4.53;2.10;;;;;;;20.08;40.08;102305.75;5035427;28;20151;-81
2023/09/30 11:26:31;;;;;;;5.25;2.33;;;;;;;20.14;38.88;102305.97;5034040;28;20393;-80
2023/09/30 11:29:06;;;;;;;4.75;2.10;;;;;;;20.18;38.76;102290.72;5040545;28;20048;-79
2023/09/30 11:31:35;;;;;;;4.63;2.08;;;;;;;20.19;39.80;102286.91;5052973;28;20061;-79
2023/09/30 11:34:04;;;;;;;5.50;2.45;;;;;;;20.25;39.41;102286.25;5033783;28;20732;-80
2023/09/30 11:36:32;;;;;;;6.65;2.33;;;;;;;20.28;39.33;102283.13;5033318;28;20083;-79